August 23, 2019
Temp
 
94.0 °F
 
Heat Idx
 
95.8 °F
 
Dew Pt.
 
61.3 °F
 
Humidity
 
34%
 
Pressure
 
1008.6 hPa 
  falling rapidly
Wind
 
6.0 mph 
    SW
Rain
 
0.00 in 
  0.00 in/hr
UV index
 
---  
 
Solar rad.
 
100 W/m²
 
This
Afternoon
This Afternoon: Sunny, with a high near 90. South wind around 10 mph.
Sunny
Tonight

Tonight: Patchy fog after 11pm.  Otherwise, increasing clouds, with a low around 62. South southwest wind 5 to 10 mph becoming light south  in the evening.
Patchy Fog
Hi 90 °F Lo 62 °F
Earthquakes of magnitude 2.5 or greater within 150 miles
Near CityMagnitudeDistance to
Epicenter
Local TimeLink
Ridgecrest, CA 2.5 103 mi (166 km) 2019/08/23 13:26:54 map
Trona, CA 3.0 128 mi (206 km) 2019/08/23 13:23:32 map
Searles Valley, CA 3.3 117 mi (188 km) 2019/08/23 12:19:42 map
Running Springs, CA 2.5 48 mi (78 km) 2019/08/23 10:53:02 map
Yucaipa, CA 2.6 56 mi (90 km) 2019/08/23 10:04:08 map
Ridgecrest, CA 3.0 106 mi (171 km) 2019/08/23 03:22:22 map
Little Lake, CA 2.5 120 mi (193 km) 2019/08/23 02:29:20 map
Little Lake, CA 2.6 121 mi (195 km) 2019/08/23 00:05:11 map
Little Lake, CA 3.2 122 mi (197 km) 2019/08/22 22:37:25 map
Little Lake, CA 4.3 122 mi (196 km) 2019/08/22 22:34:09 map
Little Lake, CA 2.5 121 mi (194 km) 2019/08/22 19:43:41 map
Ocotillo, CA 3.0 135 mi (218 km) 2019/08/22 19:37:40 map
Little Lake, CA 3.0 121 mi (194 km) 2019/08/22 14:22:35 map
Little Lake, CA 3.5 121 mi (195 km) 2019/08/22 14:21:40 map
Little Lake, CA 3.6 121 mi (194 km) 2019/08/22 14:11:07 map
Little Lake, CA 3.2 122 mi (196 km) 2019/08/22 14:09:17 map
Little Lake, CA 2.7 120 mi (193 km) 2019/08/22 14:03:25 map
Little Lake, CA 2.5 121 mi (194 km) 2019/08/22 13:58:46 map
Little Lake, CA 2.6 119 mi (192 km) 2019/08/22 13:54:23 map
Little Lake, CA 5.0 122 mi (196 km) 2019/08/22 13:49:50 map
Searles Valley, CA 2.9 109 mi (175 km) 2019/08/22 09:04:28 map
California City, CA 2.5 81 mi (130 km) 2019/08/22 07:57:41 map
Little Lake, CA 2.6 122 mi (196 km) 2019/08/22 06:16:39 map
Trona, CA 2.8 101 mi (162 km) 2019/08/21 21:21:07 map
Searles Valley, CA 2.7 107 mi (172 km) 2019/08/21 19:10:09 map
Little Lake, CA 2.5 121 mi (194 km) 2019/08/21 08:02:49 map
Trona, CA 3.2 101 mi (162 km) 2019/08/21 07:20:22 map
Searles Valley, CA 2.7 107 mi (173 km) 2019/08/21 05:43:37 map
Little Lake, CA 2.9 121 mi (194 km) 2019/08/21 02:57:59 map
Cabazon, CA 3.2 70 mi (112 km) 2019/08/20 23:50:41 map
Ridgecrest, CA 3.4 110 mi (177 km) 2019/08/20 17:30:10 map
Johannesburg, CA 2.6 99 mi (159 km) 2019/08/20 16:48:36 map
Johannesburg, CA 3.3 99 mi (159 km) 2019/08/20 16:46:56 map
Olancha, CA 2.6 143 mi (230 km) 2019/08/20 07:24:35 map
Coso Junction, CA 2.6 133 mi (214 km) 2019/08/20 06:41:46 map
Coso Junction, CA 2.6 134 mi (215 km) 2019/08/19 11:32:19 map
Trona, CA 2.5 103 mi (165 km) 2019/08/19 05:17:41 map
Ridgecrest, CA 3.1 102 mi (164 km) 2019/08/19 04:45:20 map
Anza, CA 2.8 76 mi (122 km) 2019/08/18 18:24:12 map
Searles Valley, CA 3.5 108 mi (174 km) 2019/08/18 17:09:12 map
Searles Valley, CA 2.6 109 mi (175 km) 2019/08/18 15:02:28 map
Searles Valley, CA 3.5 108 mi (174 km) 2019/08/18 11:56:43 map
Coso Junction, CA 3.1 133 mi (214 km) 2019/08/18 11:27:42 map
Coso Junction, CA 2.8 134 mi (215 km) 2019/08/18 09:20:50 map
Coso Junction, CA 2.5 134 mi (215 km) 2019/08/18 09:08:34 map
Little Lake, CA 2.6 122 mi (197 km) 2019/08/18 01:23:59 map
Coso Junction, CA 3.2 134 mi (215 km) 2019/08/18 00:42:25 map
Searles Valley, CA 2.6 109 mi (176 km) 2019/08/17 23:45:48 map
Coso Junction, CA 2.5 134 mi (215 km) 2019/08/17 22:05:47 map
Coso Junction, CA 2.7 133 mi (214 km) 2019/08/17 22:02:42 map
Coso Junction, CA 2.6 134 mi (215 km) 2019/08/17 10:24:09 map
Coso Junction, CA 2.6 134 mi (215 km) 2019/08/17 06:37:49 map
Little Lake, CA 3.1 122 mi (197 km) 2019/08/17 04:55:31 map
Coso Junction, CA 2.5 134 mi (215 km) 2019/08/16 19:10:23 map

Click on location for more details from the USGS.